AUA65W LOWW-LZKZ
Flight info
| Callsign | AUA65W |
|---|---|
| Flight time | 0h 36m |
| Altitude | 29000 |
| Route | KOXER Z649 XENAK M985 JAN DCT TURIS DCT SLC DCT KALIF DCT TAKOS |
| Aircraft | A320/M-SDE3FGHIRWY/LB1 |
Departure
| Time | 2026-05-06 17:18 |
|---|---|
| Airport | Vienna International Airport (LOWW) |
Arrival
| Time | 2026-05-06 17:55 |
|---|---|
| Airport | Košice International Airport (LZKZ) |
| Time | Latitude | Longitude | Altitude | Speed | Heading |
|---|---|---|---|---|---|
| 2026-05-06 17:07 | 48.11462 | 16.57012 | 613 ft | 0 kts | 206° |
| 2026-05-06 17:15 | 48.11443 | 16.56998 | 611 ft | 8 kts | 206° |
| 2026-05-06 17:15 | 48.11390 | 16.57003 | 618 ft | 9 kts | 129° |
| 2026-05-06 17:15 | 48.11359 | 16.57100 | 611 ft | 14 kts | 115° |
| 2026-05-06 17:15 | 48.11301 | 16.57275 | 608 ft | 22 kts | 118° |
| 2026-05-06 17:16 | 48.11231 | 16.57485 | 614 ft | 23 kts | 115° |
| 2026-05-06 17:16 | 48.11161 | 16.57696 | 620 ft | 23 kts | 116° |
| 2026-05-06 17:16 | 48.11092 | 16.57911 | 615 ft | 23 kts | 116° |
| 2026-05-06 17:16 | 48.11022 | 16.58121 | 613 ft | 22 kts | 120° |
| 2026-05-06 17:17 | 48.10953 | 16.58251 | 614 ft | 9 kts | 163° |
| 2026-05-06 17:17 | 48.10948 | 16.58253 | 613 ft | 0 kts | 163° |
| 2026-05-06 17:17 | 48.10937 | 16.58258 | 612 ft | 3 kts | 163° |
| 2026-05-06 17:17 | 48.10817 | 16.58309 | 613 ft | 54 kts | 164° |
| 2026-05-06 17:18 | 48.10177 | 16.58579 | 619 ft | 133 kts | 164° |
| 2026-05-06 17:18 | 48.09197 | 16.58993 | 1177 ft | 149 kts | 167° |
| 2026-05-06 17:18 | 48.08172 | 16.59425 | 2066 ft | 158 kts | 168° |
| 2026-05-06 17:18 | 48.07114 | 16.59869 | 3091 ft | 157 kts | 169° |
| 2026-05-06 17:19 | 48.06088 | 16.60383 | 4084 ft | 157 kts | 162° |
| 2026-05-06 17:19 | 48.05128 | 16.61313 | 4589 ft | 178 kts | 146° |
| 2026-05-06 17:19 | 48.04284 | 16.62870 | 4900 ft | 210 kts | 126° |
| 2026-05-06 17:19 | 48.03807 | 16.65095 | 5308 ft | 241 kts | 101° |
| 2026-05-06 17:20 | 48.04025 | 16.67731 | 5751 ft | 274 kts | 74° |
| 2026-05-06 17:20 | 48.04700 | 16.70534 | 6297 ft | 295 kts | 72° |
| 2026-05-06 17:20 | 48.05401 | 16.73460 | 7151 ft | 301 kts | 73° |
| 2026-05-06 17:20 | 48.06105 | 16.76430 | 8083 ft | 305 kts | 73° |
| 2026-05-06 17:21 | 48.06818 | 16.79448 | 9017 ft | 310 kts | 73° |
| 2026-05-06 17:21 | 48.07535 | 16.82502 | 9947 ft | 313 kts | 73° |
| 2026-05-06 17:21 | 48.08270 | 16.85648 | 10462 ft | 332 kts | 73° |
| 2026-05-06 17:21 | 48.09052 | 16.89008 | 10908 ft | 350 kts | 73° |
| 2026-05-06 17:22 | 48.09860 | 16.92477 | 11693 ft | 356 kts | 73° |
| 2026-05-06 17:22 | 48.10678 | 16.95988 | 12531 ft | 359 kts | 73° |
| 2026-05-06 17:22 | 48.11442 | 16.99571 | 13348 ft | 363 kts | 78° |
| 2026-05-06 17:22 | 48.12079 | 17.03246 | 14069 ft | 366 kts | 79° |
| 2026-05-06 17:23 | 48.12673 | 17.06982 | 14752 ft | 370 kts | 80° |
| 2026-05-06 17:23 | 48.13250 | 17.10762 | 15459 ft | 375 kts | 80° |
| 2026-05-06 17:23 | 48.13829 | 17.14586 | 16149 ft | 379 kts | 80° |
| 2026-05-06 17:23 | 48.14419 | 17.18462 | 16843 ft | 383 kts | 80° |
| 2026-05-06 17:24 | 48.15021 | 17.22369 | 17530 ft | 388 kts | 80° |
| 2026-05-06 17:24 | 48.15634 | 17.26317 | 18197 ft | 392 kts | 79° |
| 2026-05-06 17:24 | 48.16260 | 17.30308 | 18788 ft | 396 kts | 79° |
| 2026-05-06 17:24 | 48.16893 | 17.34343 | 19377 ft | 400 kts | 79° |
| 2026-05-06 17:25 | 48.17528 | 17.38414 | 19967 ft | 403 kts | 79° |
| 2026-05-06 17:25 | 48.18164 | 17.42523 | 20562 ft | 407 kts | 79° |
| 2026-05-06 17:25 | 48.18797 | 17.46629 | 21152 ft | 411 kts | 79° |
| 2026-05-06 17:25 | 48.19449 | 17.50875 | 21734 ft | 415 kts | 79° |
| 2026-05-06 17:26 | 48.20090 | 17.55057 | 22325 ft | 419 kts | 79° |
| 2026-05-06 17:26 | 48.20745 | 17.59329 | 22908 ft | 422 kts | 79° |
| 2026-05-06 17:26 | 48.21408 | 17.63652 | 23469 ft | 426 kts | 79° |
| 2026-05-06 17:26 | 48.22072 | 17.67996 | 23941 ft | 430 kts | 79° |
| 2026-05-06 17:27 | 48.22739 | 17.72390 | 24415 ft | 433 kts | 79° |
| 2026-05-06 17:27 | 48.23410 | 17.76823 | 24879 ft | 437 kts | 79° |
| 2026-05-06 17:27 | 48.24084 | 17.81286 | 25331 ft | 440 kts | 79° |
| 2026-05-06 17:27 | 48.24760 | 17.85782 | 25775 ft | 443 kts | 79° |
| 2026-05-06 17:28 | 48.25436 | 17.90310 | 26213 ft | 447 kts | 79° |
| 2026-05-06 17:28 | 48.26116 | 17.94873 | 26638 ft | 450 kts | 79° |
| 2026-05-06 17:28 | 48.26801 | 17.99465 | 27058 ft | 453 kts | 79° |
| 2026-05-06 17:28 | 48.27492 | 18.04100 | 27469 ft | 456 kts | 79° |
| 2026-05-06 17:29 | 48.28188 | 18.08765 | 27882 ft | 459 kts | 78° |
| 2026-05-06 17:29 | 48.28887 | 18.13457 | 28279 ft | 462 kts | 79° |
| 2026-05-06 17:29 | 48.29587 | 18.18185 | 28673 ft | 465 kts | 79° |
| 2026-05-06 17:29 | 48.30288 | 18.22933 | 28818 ft | 464 kts | 79° |
| 2026-05-06 17:30 | 48.30971 | 18.27576 | 28844 ft | 446 kts | 79° |
| 2026-05-06 17:30 | 48.32266 | 18.36449 | 28846 ft | 433 kts | 79° |
| 2026-05-06 17:31 | 48.33540 | 18.45284 | 28856 ft | 437 kts | 79° |
| 2026-05-06 17:31 | 48.34839 | 18.54276 | 28854 ft | 434 kts | 79° |
| 2026-05-06 17:32 | 48.36111 | 18.63103 | 28862 ft | 430 kts | 79° |
| 2026-05-06 17:32 | 48.37362 | 18.71900 | 28864 ft | 430 kts | 79° |
| 2026-05-06 17:33 | 48.38606 | 18.80681 | 28868 ft | 429 kts | 79° |
| 2026-05-06 17:33 | 48.39856 | 18.89449 | 28873 ft | 429 kts | 79° |
| 2026-05-06 17:34 | 48.41117 | 18.98462 | 28876 ft | 453 kts | 79° |
| 2026-05-06 17:34 | 48.42431 | 19.07924 | 28879 ft | 465 kts | 79° |
| 2026-05-06 17:35 | 48.43752 | 19.17430 | 28879 ft | 467 kts | 79° |
| 2026-05-06 17:35 | 48.45065 | 19.26996 | 28880 ft | 466 kts | 79° |
| 2026-05-06 17:36 | 48.47015 | 19.41335 | 28887 ft | 466 kts | 79° |
| 2026-05-06 17:36 | 48.47667 | 19.46124 | 28647 ft | 466 kts | 79° |
| 2026-05-06 17:36 | 48.48316 | 19.50907 | 28376 ft | 465 kts | 79° |
| 2026-05-06 17:37 | 48.48956 | 19.55660 | 27723 ft | 462 kts | 79° |
| 2026-05-06 17:37 | 48.49590 | 19.60393 | 27043 ft | 458 kts | 79° |
| 2026-05-06 17:37 | 48.50217 | 19.65083 | 26369 ft | 455 kts | 79° |
| 2026-05-06 17:37 | 48.50836 | 19.69748 | 25698 ft | 452 kts | 79° |
| 2026-05-06 17:38 | 48.51446 | 19.74382 | 25034 ft | 449 kts | 79° |
| 2026-05-06 17:38 | 48.52053 | 19.78989 | 24379 ft | 446 kts | 79° |
| 2026-05-06 17:38 | 48.52658 | 19.83569 | 23749 ft | 443 kts | 80° |
| 2026-05-06 17:38 | 48.53258 | 19.88112 | 23080 ft | 440 kts | 80° |
| 2026-05-06 17:39 | 48.53852 | 19.92612 | 22491 ft | 434 kts | 80° |
| 2026-05-06 17:39 | 48.54437 | 19.97063 | 21948 ft | 429 kts | 80° |
| 2026-05-06 17:39 | 48.55010 | 20.01454 | 21409 ft | 424 kts | 80° |
| 2026-05-06 17:39 | 48.55576 | 20.05801 | 20898 ft | 420 kts | 81° |
| 2026-05-06 17:40 | 48.56126 | 20.10050 | 20391 ft | 416 kts | 81° |
| 2026-05-06 17:40 | 48.56678 | 20.14322 | 19854 ft | 413 kts | 81° |
| 2026-05-06 17:40 | 48.57221 | 20.18559 | 19329 ft | 410 kts | 81° |
| 2026-05-06 17:40 | 48.57759 | 20.22779 | 18780 ft | 408 kts | 81° |
| 2026-05-06 17:41 | 48.58333 | 20.26965 | 18239 ft | 407 kts | 77° |
| 2026-05-06 17:41 | 48.59180 | 20.31055 | 17651 ft | 406 kts | 74° |
| 2026-05-06 17:41 | 48.60043 | 20.35104 | 17100 ft | 403 kts | 74° |
| 2026-05-06 17:41 | 48.60897 | 20.39128 | 16552 ft | 400 kts | 74° |
| 2026-05-06 17:42 | 48.61741 | 20.43119 | 16086 ft | 396 kts | 74° |
| 2026-05-06 17:42 | 48.62571 | 20.47061 | 15582 ft | 392 kts | 74° |
| 2026-05-06 17:42 | 48.63386 | 20.50925 | 15410 ft | 377 kts | 74° |
| 2026-05-06 17:42 | 48.64157 | 20.54576 | 15282 ft | 351 kts | 74° |
| 2026-05-06 17:43 | 48.64879 | 20.58001 | 14975 ft | 335 kts | 74° |
| 2026-05-06 17:43 | 48.65576 | 20.61324 | 14441 ft | 328 kts | 74° |
| 2026-05-06 17:43 | 48.66258 | 20.64599 | 13858 ft | 325 kts | 74° |
| 2026-05-06 17:43 | 48.66932 | 20.67845 | 13215 ft | 322 kts | 74° |
| 2026-05-06 17:44 | 48.67557 | 20.70865 | 12580 ft | 320 kts | 74° |
| 2026-05-06 17:44 | 48.68218 | 20.74064 | 11893 ft | 318 kts | 74° |
| 2026-05-06 17:44 | 48.68876 | 20.77247 | 11243 ft | 316 kts | 74° |
| 2026-05-06 17:44 | 48.69530 | 20.80404 | 10698 ft | 314 kts | 73° |
| 2026-05-06 17:45 | 48.70179 | 20.83548 | 10497 ft | 313 kts | 73° |
| 2026-05-06 17:45 | 48.70830 | 20.86696 | 10405 ft | 315 kts | 73° |
| 2026-05-06 17:45 | 48.71482 | 20.89855 | 10231 ft | 313 kts | 73° |
| 2026-05-06 17:45 | 48.72128 | 20.92984 | 10113 ft | 312 kts | 73° |
| 2026-05-06 17:46 | 48.72764 | 20.96077 | 9996 ft | 313 kts | 73° |
| 2026-05-06 17:46 | 48.73420 | 20.99275 | 9334 ft | 322 kts | 73° |
| 2026-05-06 17:46 | 48.74308 | 21.02255 | 9138 ft | 301 kts | 55° |
| 2026-05-06 17:46 | 48.75649 | 21.04522 | 9007 ft | 278 kts | 37° |
| 2026-05-06 17:47 | 48.77230 | 21.06001 | 8762 ft | 260 kts | 20° |
| 2026-05-06 17:47 | 48.78930 | 21.06774 | 8295 ft | 253 kts | 9° |
| 2026-05-06 17:47 | 48.80643 | 21.07357 | 7731 ft | 252 kts | 8° |
| 2026-05-06 17:47 | 48.82356 | 21.07947 | 7147 ft | 252 kts | 10° |
| 2026-05-06 17:48 | 48.83957 | 21.09021 | 6654 ft | 254 kts | 38° |
| 2026-05-06 17:48 | 48.85070 | 21.11053 | 6164 ft | 251 kts | 67° |
| 2026-05-06 17:48 | 48.85453 | 21.13577 | 5621 ft | 244 kts | 96° |
| 2026-05-06 17:48 | 48.85393 | 21.15264 | 5222 ft | 242 kts | 98° |
| 2026-05-06 17:49 | 48.85292 | 21.17821 | 4699 ft | 243 kts | 98° |
| 2026-05-06 17:49 | 48.85125 | 21.20268 | 4527 ft | 222 kts | 109° |
| 2026-05-06 17:49 | 48.84796 | 21.22478 | 4334 ft | 209 kts | 109° |
| 2026-05-06 17:49 | 48.84472 | 21.24609 | 4033 ft | 206 kts | 109° |
| 2026-05-06 17:50 | 48.84130 | 21.26720 | 3661 ft | 204 kts | 116° |
| 2026-05-06 17:50 | 48.83380 | 21.28429 | 3306 ft | 190 kts | 147° |
| 2026-05-06 17:50 | 48.82290 | 21.29279 | 3195 ft | 167 kts | 172° |
| 2026-05-06 17:50 | 48.81199 | 21.29340 | 3107 ft | 150 kts | 194° |
| 2026-05-06 17:51 | 48.80221 | 21.28999 | 3033 ft | 140 kts | 196° |
| 2026-05-06 17:51 | 48.79294 | 21.28675 | 3000 ft | 135 kts | 197° |
| 2026-05-06 17:51 | 48.78391 | 21.28358 | 2955 ft | 134 kts | 197° |
| 2026-05-06 17:51 | 48.77487 | 21.28039 | 2760 ft | 133 kts | 195° |
| 2026-05-06 17:52 | 48.76577 | 21.27720 | 2558 ft | 134 kts | 196° |
| 2026-05-06 17:52 | 48.75681 | 21.27407 | 2404 ft | 131 kts | 195° |
| 2026-05-06 17:52 | 48.74796 | 21.27098 | 2212 ft | 131 kts | 195° |
| 2026-05-06 17:52 | 48.73908 | 21.26786 | 2041 ft | 131 kts | 194° |
| 2026-05-06 17:53 | 48.73011 | 21.26472 | 1851 ft | 132 kts | 193° |
| 2026-05-06 17:53 | 48.72122 | 21.26162 | 1674 ft | 131 kts | 194° |
| 2026-05-06 17:53 | 48.71233 | 21.25850 | 1489 ft | 131 kts | 193° |
| 2026-05-06 17:53 | 48.70348 | 21.25538 | 1343 ft | 131 kts | 195° |
| 2026-05-06 17:54 | 48.69451 | 21.25225 | 1157 ft | 131 kts | 195° |
| 2026-05-06 17:54 | 48.68561 | 21.24909 | 974 ft | 134 kts | 193° |
| 2026-05-06 17:54 | 48.67653 | 21.24592 | 793 ft | 133 kts | 193° |
| 2026-05-06 17:54 | 48.66843 | 21.24307 | 757 ft | 103 kts | 193° |
| 2026-05-06 17:55 | 48.66248 | 21.24099 | 756 ft | 68 kts | 192° |
| 2026-05-06 17:55 | 48.65991 | 21.24009 | 755 ft | 29 kts | 193° |
| 2026-05-06 17:55 | 48.65904 | 21.24076 | 754 ft | 14 kts | 114° |
| 2026-05-06 17:55 | 48.65883 | 21.24218 | 756 ft | 14 kts | 101° |
| 2026-05-06 17:56 | 48.65920 | 21.24327 | 757 ft | 12 kts | 18° |
| 2026-05-06 17:56 | 48.66001 | 21.24357 | 755 ft | 12 kts | 13° |
| 2026-05-06 17:56 | 48.66078 | 21.24385 | 753 ft | 12 kts | 13° |
| 2026-05-06 17:56 | 48.66198 | 21.24427 | 755 ft | 22 kts | 14° |
| 2026-05-06 17:57 | 48.66340 | 21.24477 | 757 ft | 20 kts | 11° |
| 2026-05-06 17:57 | 48.66473 | 21.24520 | 757 ft | 19 kts | 12° |
| 2026-05-06 17:57 | 48.66595 | 21.24566 | 757 ft | 17 kts | 13° |
| 2026-05-06 17:57 | 48.66709 | 21.24607 | 756 ft | 16 kts | 13° |
| 2026-05-06 17:58 | 48.66815 | 21.24646 | 758 ft | 15 kts | 12° |
| 2026-05-06 17:58 | 48.66915 | 21.24678 | 758 ft | 14 kts | 12° |
| 2026-05-06 17:58 | 48.67006 | 21.24710 | 756 ft | 13 kts | 13° |
| 2026-05-06 17:58 | 48.67093 | 21.24740 | 758 ft | 12 kts | 13° |
| 2026-05-06 17:59 | 48.67172 | 21.24730 | 757 ft | 12 kts | 324° |
| 2026-05-06 17:59 | 48.67201 | 21.24604 | 757 ft | 13 kts | 283° |
| 2026-05-06 17:59 | 48.67225 | 21.24442 | 757 ft | 21 kts | 283° |
| 2026-05-06 17:59 | 48.67258 | 21.24227 | 757 ft | 19 kts | 283° |
| 2026-05-06 18:00 | 48.67286 | 21.24050 | 757 ft | 15 kts | 283° |
| 2026-05-06 18:00 | 48.67309 | 21.23924 | 755 ft | 9 kts | 305° |
| 2026-05-06 18:00 | 48.67343 | 21.23876 | 757 ft | 3 kts | 272° |
| 2026-05-06 18:00 | 48.67329 | 21.23846 | 755 ft | 0 kts | 234° |